createdAt,value
2023-03-17T00:01:34.082Z,43.90
2023-03-17T00:04:01.525Z,49.20
2023-03-17T00:06:32.038Z,54.80
2023-03-17T00:08:59.175Z,58.90
2023-03-17T00:11:29.814Z,49.70
2023-03-17T00:13:59.374Z,48.40
2023-03-17T00:16:28.436Z,44.70
2023-03-17T00:18:56.782Z,40.40
2023-03-17T00:21:29.252Z,41.40
2023-03-17T00:24:07.485Z,39.10
2023-03-17T00:26:38.005Z,39.30
2023-03-17T00:29:06.011Z,39.20
2023-03-17T00:31:35.258Z,41.50
2023-03-17T00:34:16.814Z,41.20
2023-03-17T00:36:45.967Z,35.30
2023-03-17T00:41:42.512Z,33.70
2023-03-17T00:44:12.860Z,29.90
2023-03-17T00:46:50.863Z,28.40
2023-03-17T00:49:22.157Z,30.80
2023-03-17T00:51:49.873Z,29.50
2023-03-17T00:54:18.235Z,30.90
2023-03-17T00:56:46.517Z,32.20
2023-03-17T00:59:25.425Z,32.30
2023-03-17T01:01:52.626Z,34.00
2023-03-17T01:04:24.080Z,35.40
2023-03-17T01:06:53.298Z,35.00
2023-03-17T01:09:21.508Z,34.40
2023-03-17T01:11:51.924Z,32.00
2023-03-17T01:14:19.586Z,33.20
2023-03-17T01:16:47.881Z,34.50
2023-03-17T01:19:17.075Z,32.60
2023-03-17T01:21:44.605Z,33.60
2023-03-17T01:24:21.728Z,33.30
2023-03-17T01:26:51.089Z,32.40
2023-03-17T01:29:27.164Z,31.50
2023-03-17T01:31:56.910Z,34.10
2023-03-17T01:34:24.055Z,33.70
2023-03-17T01:36:51.170Z,33.80
2023-03-17T01:39:20.948Z,33.90
2023-03-17T01:41:47.874Z,32.60
2023-03-17T01:44:20.775Z,33.60
2023-03-17T01:46:49.589Z,33.50
2023-03-17T01:49:33.167Z,31.70
2023-03-17T01:52:09.590Z,33.30
2023-03-17T01:54:43.791Z,32.00
2023-03-17T01:57:18.043Z,33.10
2023-03-17T01:59:56.589Z,32.30
2023-03-17T02:02:32.004Z,33.70
2023-03-17T02:05:22.216Z,31.60
2023-03-17T02:08:00.908Z,32.30
2023-03-17T02:13:17.009Z,31.00
2023-03-17T02:15:54.650Z,32.10
2023-03-17T02:18:34.885Z,32.30
2023-03-17T02:21:35.601Z,31.10
2023-03-17T02:24:21.834Z,32.80
2023-03-17T02:26:54.668Z,31.50
2023-03-17T02:29:37.995Z,34.20
2023-03-17T02:32:19.465Z,34.40
2023-03-17T02:35:08.587Z,34.80
2023-03-17T02:37:37.342Z,34.10
2023-03-17T02:40:25.546Z,34.30
2023-03-17T02:42:54.137Z,35.00
2023-03-17T02:45:32.462Z,36.60
2023-03-17T02:48:20.235Z,34.90
2023-03-17T02:51:08.118Z,35.30
2023-03-17T02:53:37.939Z,36.20
2023-03-17T02:56:05.635Z,37.60
2023-03-17T02:58:32.722Z,38.80
2023-03-17T03:00:59.968Z,38.70
2023-03-17T03:03:27.637Z,38.30
2023-03-17T03:05:54.849Z,38.80
2023-03-17T03:08:22.140Z,39.70
2023-03-17T03:10:49.247Z,39.70
2023-03-17T03:13:27.164Z,37.40
2023-03-17T03:16:14.647Z,38.80
2023-03-17T03:18:41.883Z,39.20
2023-03-17T03:21:09.707Z,38.10
2023-03-17T03:23:39.626Z,38.60
2023-03-17T03:26:07.849Z,36.80
2023-03-17T03:28:37.763Z,36.70
2023-03-17T03:31:08.597Z,37.10
2023-03-17T03:33:38.856Z,36.00
2023-03-17T03:36:17.505Z,38.30
2023-03-17T03:38:58.756Z,37.50
2023-03-17T03:41:33.163Z,40.60
2023-03-17T03:44:14.086Z,38.00
2023-03-17T03:46:52.322Z,40.30
2023-03-17T03:52:14.499Z,39.30
2023-03-17T03:54:43.578Z,40.20
2023-03-17T03:57:10.791Z,40.10
2023-03-17T03:59:41.297Z,42.00
2023-03-17T04:02:09.555Z,41.60
2023-03-17T04:04:57.956Z,41.10
2023-03-17T04:07:33.907Z,39.90
2023-03-17T04:10:01.100Z,39.60
2023-03-17T04:12:48.136Z,39.50
2023-03-17T04:15:20.707Z,40.10
2023-03-17T04:17:55.070Z,39.40
2023-03-17T04:20:42.558Z,37.40
2023-03-17T04:23:31.630Z,38.80
2023-03-17T04:26:10.364Z,37.20
2023-03-17T04:28:57.669Z,37.20
2023-03-17T04:31:39.800Z,36.80
2023-03-17T04:34:19.546Z,36.40
2023-03-17T04:37:07.470Z,37.80
2023-03-17T04:39:38.165Z,37.10
2023-03-17T04:42:14.810Z,37.20
2023-03-17T04:45:02.071Z,37.00
2023-03-17T04:47:50.059Z,36.40
2023-03-17T04:50:37.400Z,36.40
2023-03-17T04:53:14.738Z,37.90
2023-03-17T04:55:54.606Z,36.70
2023-03-17T04:58:42.051Z,36.30
2023-03-17T05:01:29.438Z,35.40
2023-03-17T05:04:30.717Z,33.60
2023-03-17T05:07:18.858Z,32.60
2023-03-17T05:10:08.001Z,32.50
2023-03-17T05:12:45.345Z,32.70
2023-03-17T05:15:33.711Z,32.30
2023-03-17T05:18:15.000Z,31.30
2023-03-17T05:21:02.888Z,31.40
2023-03-17T05:23:43.073Z,31.50
2023-03-17T05:26:30.611Z,30.20
2023-03-17T05:29:18.024Z,29.30
2023-03-17T05:31:59.480Z,28.80
2023-03-17T05:37:27.406Z,28.40
2023-03-17T05:39:57.884Z,28.10
2023-03-17T05:42:45.593Z,27.10
2023-03-17T05:45:14.415Z,26.40
2023-03-17T05:47:44.893Z,26.40
2023-03-17T05:50:14.103Z,27.10
2023-03-17T05:52:44.225Z,24.90
2023-03-17T05:55:12.606Z,25.60
2023-03-17T05:57:39.753Z,25.10
2023-03-17T06:00:08.649Z,24.90
2023-03-17T06:02:36.442Z,22.60
2023-03-17T06:05:03.891Z,24.80
2023-03-17T06:07:44.582Z,23.40
2023-03-17T06:10:18.013Z,23.00
2023-03-17T06:12:45.076Z,22.10
2023-03-17T06:15:13.062Z,19.60
2023-03-17T06:17:40.313Z,21.80
2023-03-17T06:20:09.216Z,21.20
2023-03-17T06:22:37.421Z,19.30
2023-03-17T06:25:05.602Z,17.50
2023-03-17T06:27:32.990Z,19.10
2023-03-17T06:30:00.377Z,18.10
2023-03-17T06:32:28.388Z,18.20
2023-03-17T06:34:55.611Z,18.10
2023-03-17T06:37:22.719Z,17.50
2023-03-17T06:39:50.106Z,17.50
2023-03-17T06:42:17.912Z,16.70
2023-03-17T06:44:45.379Z,15.60
2023-03-17T06:47:12.792Z,15.30
2023-03-17T06:49:39.847Z,15.20
2023-03-17T06:52:08.870Z,15.70
2023-03-17T06:54:36.717Z,15.00
2023-03-17T06:57:03.911Z,16.00
2023-03-17T06:59:31.476Z,16.00
2023-03-17T07:01:59.160Z,15.00
2023-03-17T07:04:26.564Z,15.80
2023-03-17T07:06:53.698Z,15.20
2023-03-17T07:09:22.307Z,16.00
2023-03-17T07:11:49.739Z,15.50
2023-03-17T07:14:17.193Z,15.20
2023-03-17T07:16:45.236Z,15.50
2023-03-17T07:19:12.511Z,15.80
2023-03-17T07:21:39.812Z,15.50
2023-03-17T07:24:07.390Z,15.80
2023-03-17T07:26:34.654Z,15.90
2023-03-17T07:29:02.545Z,15.60
2023-03-17T07:31:29.846Z,15.00
2023-03-17T07:33:58.251Z,16.10
2023-03-17T07:36:25.679Z,16.50
2023-03-17T07:38:52.770Z,15.60
2023-03-17T07:41:20.756Z,16.10
2023-03-17T07:43:47.784Z,16.20
2023-03-17T07:46:15.252Z,15.80
2023-03-17T07:48:44.175Z,13.90
2023-03-17T07:51:15.018Z,13.80
2023-03-17T07:53:42.782Z,15.00
2023-03-17T07:56:11.808Z,14.80
2023-03-17T07:58:38.870Z,15.00
2023-03-17T08:03:49.706Z,13.80
2023-03-17T08:06:17.040Z,14.20
2023-03-17T08:08:44.195Z,13.90
2023-03-17T08:11:12.516Z,12.90
2023-03-17T08:13:39.875Z,11.80
2023-03-17T08:16:08.318Z,12.90
2023-03-17T08:18:35.434Z,12.80
2023-03-17T08:21:03.000Z,12.40
2023-03-17T08:23:30.140Z,12.40
2023-03-17T08:26:02.113Z,12.00
2023-03-17T08:28:31.579Z,11.20
2023-03-17T08:31:12.215Z,11.20
2023-03-17T08:33:40.026Z,10.90
2023-03-17T08:36:12.950Z,10.20
2023-03-17T08:38:41.627Z,10.20
2023-03-17T08:41:12.385Z,9.90
2023-03-17T08:43:40.512Z,10.30
2023-03-17T08:46:10.294Z,9.50
2023-03-17T08:48:38.210Z,9.80
2023-03-17T08:51:06.064Z,9.50
2023-03-17T08:53:35.226Z,8.70
2023-03-17T08:56:03.937Z,7.60
2023-03-17T08:58:31.718Z,6.80
2023-03-17T09:01:01.761Z,7.20
2023-03-17T09:03:50.198Z,7.80
2023-03-17T09:06:18.231Z,8.30
2023-03-17T09:08:47.760Z,7.10
2023-03-17T09:11:17.866Z,7.30
2023-03-17T09:13:46.589Z,7.30
2023-03-17T09:16:14.635Z,7.10
2023-03-17T09:18:42.257Z,6.00
2023-03-17T09:21:11.957Z,5.70
2023-03-17T09:23:39.239Z,4.90
2023-03-17T09:26:07.005Z,5.80
2023-03-17T09:28:34.200Z,5.40
2023-03-17T09:31:02.710Z,5.00
2023-03-17T09:33:31.108Z,5.10
2023-03-17T09:35:58.634Z,5.00
2023-03-17T09:38:26.450Z,4.40
2023-03-17T09:40:58.910Z,4.60
2023-03-17T09:43:37.246Z,4.30
2023-03-17T09:46:22.549Z,4.10
2023-03-17T09:48:55.539Z,4.40
2023-03-17T09:51:23.102Z,4.30
2023-03-17T09:53:55.684Z,4.30
2023-03-17T09:56:24.896Z,4.40
2023-03-17T09:58:55.613Z,4.10
2023-03-17T10:01:23.583Z,4.20
2023-03-17T10:03:51.792Z,4.20
2023-03-17T10:06:37.760Z,3.70
2023-03-17T10:09:14.380Z,4.40
2023-03-17T10:11:44.420Z,4.10
2023-03-17T10:14:27.373Z,4.20
2023-03-17T10:16:59.357Z,4.20
2023-03-17T10:19:32.144Z,4.10
2023-03-17T10:22:04.278Z,4.50
2023-03-17T10:24:34.194Z,4.40
2023-03-17T10:27:04.757Z,4.60
2023-03-17T10:29:32.742Z,4.80
2023-03-17T10:32:00.252Z,4.20
2023-03-17T10:34:33.075Z,5.00
2023-03-17T10:37:05.925Z,4.40
2023-03-17T10:39:33.827Z,4.80
2023-03-17T10:42:09.233Z,5.60
2023-03-17T10:44:49.810Z,6.00
2023-03-17T10:47:46.064Z,5.60
2023-03-17T10:50:25.386Z,5.40
2023-03-17T10:52:58.091Z,5.70
2023-03-17T10:55:29.458Z,5.40
2023-03-17T10:58:05.080Z,5.70
2023-03-17T11:00:38.753Z,5.80
2023-03-17T11:03:16.831Z,5.40
2023-03-17T11:05:58.074Z,6.40
2023-03-17T11:08:25.846Z,5.60
2023-03-17T11:10:58.603Z,6.20
2023-03-17T11:13:31.863Z,5.50
2023-03-17T11:16:22.191Z,5.50
2023-03-17T11:18:55.958Z,4.90
2023-03-17T11:21:31.359Z,5.20
2023-03-17T11:24:09.616Z,5.10
2023-03-17T11:26:57.614Z,4.80
2023-03-17T11:29:54.805Z,5.00
2023-03-17T11:32:37.059Z,5.40
2023-03-17T11:35:36.315Z,4.80
2023-03-17T11:38:24.564Z,4.90
2023-03-17T11:41:33.068Z,5.20
2023-03-17T11:44:37.432Z,5.20
2023-03-17T11:47:10.295Z,5.10
2023-03-17T11:50:09.712Z,4.80
2023-03-17T11:53:09.924Z,5.50
2023-03-17T11:55:47.394Z,6.00
2023-03-17T11:58:20.984Z,6.20
2023-03-17T12:01:12.588Z,6.00
2023-03-17T12:03:46.910Z,5.90
2023-03-17T12:06:20.748Z,5.80
2023-03-17T12:08:56.298Z,5.50
2023-03-17T12:11:38.209Z,6.50
2023-03-17T12:14:08.215Z,6.70
2023-03-17T12:16:52.737Z,7.10
2023-03-17T12:19:46.458Z,7.10
2023-03-17T12:22:39.324Z,7.30
2023-03-17T12:25:16.608Z,6.60
2023-03-17T12:27:56.427Z,7.80
2023-03-17T12:30:33.056Z,7.60
2023-03-17T12:33:08.030Z,7.90
2023-03-17T12:35:38.732Z,8.30
2023-03-17T12:38:12.989Z,8.40
2023-03-17T12:40:55.557Z,8.10
2023-03-17T12:43:46.915Z,7.50
2023-03-17T12:46:52.425Z,7.80
2023-03-17T12:49:42.300Z,8.00
2023-03-17T12:52:50.709Z,8.40
2023-03-17T12:55:32.552Z,7.90
2023-03-17T12:58:05.718Z,7.90
2023-03-17T13:00:49.300Z,8.20
2023-03-17T13:03:24.599Z,7.90
2023-03-17T13:06:02.198Z,8.20
2023-03-17T13:08:58.245Z,8.00
2023-03-17T13:11:47.445Z,7.60
2023-03-17T13:14:28.657Z,10.00
2023-03-17T13:17:36.318Z,7.90
2023-03-17T13:20:18.432Z,7.40
2023-03-17T13:23:05.165Z,7.00
2023-03-17T13:25:53.841Z,7.70
2023-03-17T13:28:42.020Z,7.10
2023-03-17T13:31:30.829Z,6.10
2023-03-17T13:34:16.348Z,5.80
2023-03-17T13:36:55.599Z,5.90
2023-03-17T13:40:11.175Z,6.00
2023-03-17T13:43:07.713Z,5.50
2023-03-17T13:45:48.898Z,5.90
2023-03-17T13:48:36.549Z,5.60
2023-03-17T13:51:18.791Z,6.00
2023-03-17T13:53:59.634Z,6.80
2023-03-17T13:56:30.603Z,6.60
2023-03-17T13:59:13.359Z,6.40
2023-03-17T14:01:47.170Z,6.30
2023-03-17T14:04:22.906Z,6.90
2023-03-17T14:07:20.993Z,6.50
2023-03-17T14:09:59.229Z,7.30
2023-03-17T14:12:34.082Z,6.40
2023-03-17T14:15:08.369Z,6.60
2023-03-17T14:17:49.799Z,6.20
2023-03-17T14:20:30.092Z,6.70
2023-03-17T14:23:01.490Z,6.70
2023-03-17T14:25:34.722Z,6.70
2023-03-17T14:28:18.150Z,8.30
2023-03-17T14:30:54.485Z,7.70
2023-03-17T14:33:25.741Z,8.80
2023-03-17T14:35:57.504Z,8.00
2023-03-17T14:38:27.163Z,8.40
2023-03-17T14:41:04.467Z,8.00
2023-03-17T14:43:32.068Z,8.00
2023-03-17T14:46:04.978Z,7.60
2023-03-17T14:48:35.499Z,7.80
2023-03-17T14:51:07.020Z,8.20
2023-03-17T14:53:35.659Z,7.60
2023-03-17T14:56:10.921Z,8.50
2023-03-17T15:01:22.010Z,8.70
2023-03-17T15:04:06.144Z,8.50
2023-03-17T15:06:52.977Z,8.90
2023-03-17T15:09:27.259Z,8.30
2023-03-17T15:11:59.270Z,8.70
2023-03-17T15:14:33.000Z,8.80
2023-03-17T15:17:03.186Z,9.00
2023-03-17T15:19:42.802Z,9.00
2023-03-17T15:22:26.406Z,9.60
2023-03-17T15:25:02.463Z,8.60
2023-03-17T15:27:44.815Z,9.40
2023-03-17T15:30:16.086Z,8.90
2023-03-17T15:32:44.026Z,8.80
2023-03-17T15:35:25.182Z,8.60
2023-03-17T15:37:52.649Z,8.40
2023-03-17T15:40:20.784Z,8.80
2023-03-17T15:42:48.281Z,7.90
2023-03-17T15:45:19.637Z,7.90
2023-03-17T15:48:10.662Z,8.50
2023-03-17T15:50:50.707Z,8.40
2023-03-17T15:53:23.638Z,7.80
2023-03-17T15:55:51.330Z,8.50
2023-03-17T15:58:27.427Z,8.50
2023-03-17T16:00:59.781Z,7.90
2023-03-17T16:03:34.039Z,7.80
2023-03-17T16:06:12.395Z,7.70
2023-03-17T16:08:42.848Z,8.40
2023-03-17T16:11:17.896Z,7.40
2023-03-17T16:13:45.323Z,7.80
2023-03-17T16:16:21.534Z,7.60
2023-03-17T16:18:53.623Z,8.30
2023-03-17T16:21:21.653Z,7.80
2023-03-17T16:24:17.317Z,7.90
2023-03-17T16:27:03.992Z,8.30
2023-03-17T16:29:31.512Z,7.60
2023-03-17T16:32:16.064Z,7.70
2023-03-17T16:34:53.609Z,8.10
2023-03-17T16:37:21.223Z,7.90
2023-03-17T16:40:22.801Z,7.70
2023-03-17T16:42:53.421Z,7.80
2023-03-17T16:45:33.254Z,7.70
2023-03-17T16:48:01.935Z,7.20
2023-03-17T16:50:39.247Z,8.40
2023-03-17T16:53:27.632Z,7.50
2023-03-17T16:56:04.612Z,7.80
2023-03-17T16:58:52.585Z,7.50
2023-03-17T17:01:40.073Z,7.50
2023-03-17T17:04:12.048Z,7.20
2023-03-17T17:06:42.595Z,7.20
2023-03-17T17:09:17.187Z,7.30
2023-03-17T17:11:58.708Z,7.60
2023-03-17T17:14:38.843Z,8.30
2023-03-17T17:17:06.831Z,7.20
2023-03-17T17:19:54.374Z,7.40
2023-03-17T17:22:41.820Z,7.40
2023-03-17T17:25:13.134Z,7.00
2023-03-17T17:27:45.954Z,7.70
2023-03-17T17:30:34.390Z,7.10
2023-03-17T17:33:05.722Z,7.00
2023-03-17T17:35:34.505Z,8.50
2023-03-17T17:38:02.637Z,7.70
2023-03-17T17:40:31.104Z,8.60
2023-03-17T17:43:02.141Z,9.20
2023-03-17T17:45:39.582Z,8.60
2023-03-17T17:48:22.606Z,8.40
2023-03-17T17:50:49.955Z,8.80
2023-03-17T17:53:37.745Z,8.20
2023-03-17T17:56:05.273Z,8.80
2023-03-17T17:58:37.970Z,9.00
2023-03-17T18:01:18.880Z,7.80
2023-03-17T18:04:06.715Z,8.10
2023-03-17T18:06:44.044Z,8.20
2023-03-17T18:09:12.681Z,8.60
2023-03-17T18:11:51.461Z,8.40
2023-03-17T18:14:30.103Z,9.30
2023-03-17T18:17:00.599Z,9.10
2023-03-17T18:20:23.938Z,8.20
2023-03-17T18:23:05.064Z,8.50
2023-03-17T18:25:32.632Z,8.90
2023-03-17T18:28:01.615Z,8.20
2023-03-17T18:30:48.235Z,8.90
2023-03-17T18:33:27.839Z,9.40
2023-03-17T18:36:00.605Z,9.10
2023-03-17T18:38:48.444Z,9.60
2023-03-17T18:41:36.594Z,9.40
2023-03-17T18:44:03.920Z,9.40
2023-03-17T18:46:36.557Z,9.50
2023-03-17T18:49:27.305Z,9.60
2023-03-17T18:52:15.476Z,10.00
2023-03-17T18:55:08.629Z,9.60
2023-03-17T18:57:48.945Z,10.40
2023-03-17T19:00:20.310Z,9.80
2023-03-17T19:02:56.070Z,10.50
2023-03-17T19:05:24.799Z,9.90
2023-03-17T19:07:55.371Z,10.60
2023-03-17T19:10:23.078Z,9.30
2023-03-17T19:13:04.661Z,10.20
2023-03-17T19:15:42.750Z,9.30
2023-03-17T19:18:10.315Z,10.80
2023-03-17T19:20:38.071Z,10.00
2023-03-17T19:23:08.053Z,10.40
2023-03-17T19:25:38.067Z,10.30
2023-03-17T19:28:14.625Z,11.10
2023-03-17T19:30:45.725Z,10.30
2023-03-17T19:33:13.258Z,10.50
2023-03-17T19:36:03.098Z,11.10
2023-03-17T19:38:36.468Z,11.00
2023-03-17T19:41:07.911Z,11.30
2023-03-17T19:43:55.295Z,11.50
2023-03-17T19:49:29.234Z,11.10
2023-03-17T19:54:50.664Z,11.80
2023-03-17T19:57:20.960Z,11.90
2023-03-17T20:00:00.908Z,13.20
2023-03-17T20:02:31.616Z,12.80
2023-03-17T20:05:11.462Z,12.80
2023-03-17T20:07:49.269Z,13.00
2023-03-17T20:10:16.624Z,12.90
2023-03-17T20:12:45.812Z,12.90
2023-03-17T20:15:14.293Z,13.60
2023-03-17T20:17:44.686Z,13.50
2023-03-17T20:20:16.307Z,13.40
2023-03-17T20:22:53.562Z,13.30
2023-03-17T20:25:21.907Z,12.80
2023-03-17T20:27:57.787Z,13.80
2023-03-17T20:30:39.634Z,12.40
2023-03-17T20:33:08.473Z,13.10
2023-03-17T20:35:39.259Z,13.00
2023-03-17T20:38:27.123Z,13.10
2023-03-17T20:41:08.370Z,13.30
2023-03-17T20:43:37.641Z,12.30
2023-03-17T20:46:18.672Z,12.70
2023-03-17T20:48:48.296Z,12.90
2023-03-17T20:51:36.807Z,12.80
2023-03-17T20:54:05.398Z,12.40
2023-03-17T20:56:44.310Z,13.10
2023-03-17T20:59:13.773Z,11.80
2023-03-17T21:01:42.741Z,12.40
2023-03-17T21:04:21.378Z,12.10
2023-03-17T21:06:56.238Z,9.60
2023-03-17T21:09:23.846Z,11.80
2023-03-17T21:12:15.067Z,11.30
2023-03-17T21:15:02.395Z,12.40
2023-03-17T21:17:32.751Z,11.60
2023-03-17T21:19:59.955Z,11.60
2023-03-17T21:22:27.790Z,11.20
2023-03-17T21:24:55.633Z,11.60
2023-03-17T21:27:23.277Z,10.90
2023-03-17T21:29:51.411Z,11.80
2023-03-17T21:32:31.935Z,11.40
2023-03-17T21:35:11.387Z,11.70
2023-03-17T21:37:58.996Z,11.20
2023-03-17T21:40:37.713Z,10.40
2023-03-17T21:43:05.784Z,11.00
2023-03-17T21:45:33.288Z,10.50
2023-03-17T21:48:21.076Z,10.90
2023-03-17T21:50:58.536Z,10.10
2023-03-17T21:53:42.571Z,10.40
2023-03-17T21:56:12.702Z,10.40
2023-03-17T21:58:44.827Z,9.90
2023-03-17T22:01:21.980Z,10.30
2023-03-17T22:03:49.524Z,11.10
2023-03-17T22:06:36.980Z,10.80
2023-03-17T22:09:04.512Z,11.30
2023-03-17T22:11:51.897Z,10.10
2023-03-17T22:14:39.478Z,10.20
2023-03-17T22:17:17.612Z,10.00
2023-03-17T22:19:45.374Z,10.30
2023-03-17T22:22:23.069Z,10.90
2023-03-17T22:25:11.428Z,10.40
2023-03-17T22:27:58.738Z,10.90
2023-03-17T22:33:33.193Z,10.70
2023-03-17T22:36:10.919Z,10.40
2023-03-17T22:38:47.497Z,10.40
2023-03-17T22:41:29.117Z,10.00
2023-03-17T22:43:57.518Z,10.20
2023-03-17T22:46:37.845Z,9.90
2023-03-17T22:49:08.952Z,9.60
2023-03-17T22:51:56.424Z,9.70
2023-03-17T22:54:37.553Z,9.20
2023-03-17T22:57:23.825Z,9.50
2023-03-17T22:59:55.304Z,9.40
2023-03-17T23:02:34.922Z,9.10
2023-03-17T23:05:05.687Z,9.20
2023-03-17T23:07:50.698Z,8.30
2023-03-17T23:10:24.809Z,9.40
2023-03-17T23:12:52.752Z,8.80
2023-03-17T23:15:21.229Z,9.20
2023-03-17T23:17:52.103Z,9.10
2023-03-17T23:20:24.765Z,9.10
2023-03-17T23:22:54.861Z,8.90
2023-03-17T23:25:25.852Z,8.40
2023-03-17T23:27:53.269Z,8.40
2023-03-17T23:30:23.422Z,8.50
2023-03-17T23:33:01.426Z,8.80
2023-03-17T23:35:41.847Z,9.20
2023-03-17T23:38:09.782Z,8.90
2023-03-17T23:40:58.429Z,8.80
2023-03-17T23:43:46.904Z,8.90
2023-03-17T23:46:34.784Z,8.70
2023-03-17T23:49:12.326Z,8.60
2023-03-17T23:51:50.965Z,8.20
2023-03-17T23:54:28.001Z,8.40
2023-03-17T23:57:05.258Z,8.80
2023-03-17T23:59:32.663Z,8.60
